createdAt,value
2023-08-12T00:01:04.898Z,14.49
2023-08-12T00:03:35.016Z,14.46
2023-08-12T00:06:06.629Z,14.44
2023-08-12T00:08:34.927Z,14.44
2023-08-12T00:11:02.817Z,14.45
2023-08-12T00:13:30.952Z,14.48
2023-08-12T00:15:59.348Z,14.49
2023-08-12T00:18:27.313Z,14.52
2023-08-12T00:20:56.415Z,14.53
2023-08-12T00:23:24.573Z,14.55
2023-08-12T00:25:52.726Z,14.57
2023-08-12T00:28:20.922Z,14.61
2023-08-12T00:30:49.541Z,14.64
2023-08-12T00:33:17.664Z,14.66
2023-08-12T00:35:46.179Z,14.68
2023-08-12T00:38:14.235Z,14.69
2023-08-12T00:40:42.388Z,14.70
2023-08-12T00:43:10.870Z,14.70
2023-08-12T00:45:39.652Z,14.69
2023-08-12T00:48:09.404Z,14.68
2023-08-12T00:50:39.168Z,14.70
2023-08-12T00:53:07.650Z,14.68
2023-08-12T00:55:35.756Z,14.63
2023-08-12T00:58:04.718Z,14.58
2023-08-12T01:00:33.483Z,14.52
2023-08-12T01:03:04.516Z,14.45
2023-08-12T01:05:32.934Z,14.41
2023-08-12T01:08:00.750Z,14.34
2023-08-12T01:10:34.376Z,14.30
2023-08-12T01:13:14.479Z,14.27
2023-08-12T01:15:44.960Z,14.23
2023-08-12T01:18:14.062Z,14.22
2023-08-12T01:20:42.136Z,14.24
2023-08-12T01:23:14.806Z,14.24
2023-08-12T01:25:43.713Z,14.17
2023-08-12T01:28:12.198Z,14.04
2023-08-12T01:30:47.411Z,13.90
2023-08-12T01:33:28.724Z,13.76
2023-08-12T01:36:02.066Z,13.68
2023-08-12T01:38:32.440Z,13.61
2023-08-12T01:41:02.327Z,13.51
2023-08-12T01:43:30.921Z,13.44
2023-08-12T01:45:59.198Z,13.36
2023-08-12T01:48:27.193Z,13.26
2023-08-12T01:50:55.428Z,13.17
2023-08-12T01:53:24.297Z,13.11
2023-08-12T01:55:53.440Z,13.07
2023-08-12T01:58:21.503Z,13.03
2023-08-12T02:00:49.657Z,12.99
2023-08-12T02:03:17.842Z,12.94
2023-08-12T02:05:46.511Z,12.84
2023-08-12T02:08:14.913Z,12.75
2023-08-12T02:10:43.170Z,12.67
2023-08-12T02:13:11.573Z,12.59
2023-08-12T02:15:39.612Z,12.53
2023-08-12T02:18:12.916Z,12.49
2023-08-12T02:20:42.123Z,12.45
2023-08-12T02:23:10.120Z,12.40
2023-08-12T02:25:37.932Z,12.35
2023-08-12T02:28:05.909Z,12.30
2023-08-12T02:30:34.608Z,12.27
2023-08-12T02:33:03.121Z,12.24
2023-08-12T02:35:30.991Z,12.22
2023-08-12T02:37:58.768Z,12.19
2023-08-12T02:40:26.884Z,12.16
2023-08-12T02:42:54.848Z,12.14
2023-08-12T02:45:22.717Z,12.14
2023-08-12T02:47:50.619Z,12.19
2023-08-12T02:50:18.863Z,12.27
2023-08-12T02:52:46.796Z,12.33
2023-08-12T02:55:14.994Z,12.37
2023-08-12T02:57:43.276Z,12.39
2023-08-12T03:00:12.267Z,12.35
2023-08-12T03:02:43.866Z,12.28
2023-08-12T03:05:11.936Z,12.18
2023-08-12T03:07:39.860Z,12.10
2023-08-12T03:10:08.247Z,12.07
2023-08-12T03:12:36.300Z,11.97
2023-08-12T03:15:05.089Z,11.83
2023-08-12T03:17:34.008Z,11.72
2023-08-12T03:20:02.509Z,11.71
2023-08-12T03:22:31.282Z,11.77
2023-08-12T03:24:59.630Z,11.80
2023-08-12T03:27:27.550Z,11.82
2023-08-12T03:29:55.870Z,11.82
2023-08-12T03:32:24.141Z,11.85
2023-08-12T03:34:52.323Z,11.84
2023-08-12T03:37:20.596Z,11.85
2023-08-12T03:39:48.863Z,11.86
2023-08-12T03:42:18.273Z,11.82
2023-08-12T03:44:46.337Z,11.73
2023-08-12T03:47:14.463Z,11.86
2023-08-12T03:49:43.011Z,12.49
2023-08-12T03:52:11.411Z,13.32
2023-08-12T03:54:39.437Z,13.99
2023-08-12T03:57:07.449Z,14.41
2023-08-12T03:59:35.787Z,14.72
2023-08-12T04:02:05.384Z,15.06
2023-08-12T04:04:33.570Z,15.11
2023-08-12T04:07:01.534Z,15.17
2023-08-12T04:09:29.537Z,15.06
2023-08-12T04:11:57.682Z,14.82
2023-08-12T04:14:26.730Z,14.82
2023-08-12T04:16:54.795Z,14.99
2023-08-12T04:19:22.927Z,15.22
2023-08-12T04:21:51.296Z,15.42
2023-08-12T04:24:19.261Z,15.67
2023-08-12T04:26:48.724Z,15.78
2023-08-12T04:29:17.040Z,15.78
2023-08-12T04:31:45.104Z,15.78
2023-08-12T04:34:13.192Z,15.80
2023-08-12T04:36:44.236Z,15.87
2023-08-12T04:39:12.722Z,16.14
2023-08-12T04:41:41.294Z,16.35
2023-08-12T04:44:09.745Z,16.54
2023-08-12T04:46:37.867Z,16.69
2023-08-12T04:49:06.733Z,16.99
2023-08-12T04:51:35.112Z,17.16
2023-08-12T04:54:04.098Z,17.21
2023-08-12T04:56:32.789Z,17.16
2023-08-12T04:59:02.284Z,17.22
2023-08-12T05:01:30.322Z,17.41
2023-08-12T05:03:58.326Z,17.79
2023-08-12T05:06:26.603Z,18.05
2023-08-12T05:08:55.592Z,18.31
2023-08-12T05:11:23.635Z,18.51
2023-08-12T05:13:51.573Z,18.57
2023-08-12T05:16:19.793Z,18.63
2023-08-12T05:18:48.390Z,18.81
2023-08-12T05:21:16.347Z,18.92
2023-08-12T05:23:44.527Z,19.06
2023-08-12T05:26:12.807Z,19.24
2023-08-12T05:28:40.623Z,19.34
2023-08-12T05:31:09.355Z,19.43
2023-08-12T05:33:37.177Z,19.50
2023-08-12T05:36:05.488Z,19.62
2023-08-12T05:38:33.566Z,19.78
2023-08-12T05:41:01.535Z,19.94
2023-08-12T05:43:29.691Z,20.14
2023-08-12T05:45:57.887Z,20.46
2023-08-12T05:48:25.944Z,20.67
2023-08-12T05:50:54.228Z,20.81
2023-08-12T05:53:23.110Z,20.91
2023-08-12T05:55:51.395Z,20.92
2023-08-12T05:58:19.686Z,20.99
2023-08-12T06:00:47.636Z,21.02
2023-08-12T06:03:15.785Z,21.20
2023-08-12T06:05:45.109Z,21.60
2023-08-12T06:08:13.519Z,21.83
2023-08-12T06:10:41.558Z,22.13
2023-08-12T06:13:09.930Z,22.51
2023-08-12T06:15:38.153Z,22.94
2023-08-12T06:18:07.609Z,23.16
2023-08-12T06:20:35.675Z,23.31
2023-08-12T06:23:03.767Z,23.37
2023-08-12T06:25:31.935Z,23.49
2023-08-12T06:28:00.415Z,23.74
2023-08-12T06:30:28.505Z,23.78
2023-08-12T06:32:56.557Z,23.83
2023-08-12T06:35:24.729Z,24.00
2023-08-12T06:37:52.783Z,24.10
2023-08-12T06:40:21.168Z,24.19
2023-08-12T06:42:49.083Z,24.35
2023-08-12T06:45:17.223Z,24.59
2023-08-12T06:47:45.455Z,24.95
2023-08-12T06:50:13.486Z,25.08
2023-08-12T06:52:42.042Z,25.06
2023-08-12T06:55:09.842Z,25.13
2023-08-12T06:57:37.637Z,25.22
2023-08-12T07:00:06.382Z,25.27
2023-08-12T07:02:34.367Z,25.29
2023-08-12T07:05:02.822Z,25.26
2023-08-12T07:07:30.965Z,25.18
2023-08-12T07:09:58.960Z,25.27
2023-08-12T07:12:26.875Z,25.30
2023-08-12T07:14:54.858Z,25.17
2023-08-12T07:17:22.722Z,25.10
2023-08-12T07:19:50.841Z,25.23
2023-08-12T07:22:20.869Z,25.49
2023-08-12T07:24:48.903Z,25.60
2023-08-12T07:27:16.933Z,25.82
2023-08-12T07:29:44.942Z,25.82
2023-08-12T07:32:13.806Z,25.79
2023-08-12T07:34:42.108Z,25.85
2023-08-12T07:37:10.068Z,26.00
2023-08-12T07:39:37.950Z,26.06
2023-08-12T07:42:06.417Z,25.89
2023-08-12T07:44:34.491Z,25.86
2023-08-12T07:47:02.262Z,25.92
2023-08-12T07:49:31.244Z,26.14
2023-08-12T07:51:59.315Z,26.33
2023-08-12T07:54:27.278Z,26.41
2023-08-12T07:56:55.344Z,26.32
2023-08-12T07:59:23.237Z,26.43
2023-08-12T08:01:51.312Z,26.65
2023-08-12T08:04:19.524Z,26.80
2023-08-12T08:06:49.220Z,26.96
2023-08-12T08:09:19.415Z,26.98
2023-08-12T08:11:47.177Z,27.17
2023-08-12T08:14:15.233Z,27.32
2023-08-12T08:16:43.663Z,27.32
2023-08-12T08:19:13.317Z,27.31
2023-08-12T08:21:41.689Z,27.49
2023-08-12T08:24:12.623Z,27.49
2023-08-12T08:26:41.881Z,27.39
2023-08-12T08:29:10.051Z,27.68
2023-08-12T08:31:38.492Z,28.09
2023-08-12T08:34:07.332Z,28.44
2023-08-12T08:36:35.436Z,28.64
2023-08-12T08:39:04.217Z,28.69
2023-08-12T08:41:33.643Z,28.76
2023-08-12T08:44:04.665Z,28.68
2023-08-12T08:46:32.965Z,28.54
2023-08-12T08:49:04.209Z,28.62
2023-08-12T08:51:35.734Z,28.25
2023-08-12T08:54:05.489Z,27.84
2023-08-12T08:56:38.598Z,27.65
2023-08-12T08:59:12.540Z,27.50
2023-08-12T09:01:41.149Z,27.32
2023-08-12T09:04:10.024Z,27.04
2023-08-12T09:06:39.991Z,26.74
2023-08-12T09:09:11.799Z,26.84
2023-08-12T09:11:40.621Z,27.27
2023-08-12T09:14:09.921Z,27.79
2023-08-12T09:16:38.191Z,28.30
2023-08-12T09:19:06.594Z,28.96
2023-08-12T09:21:34.811Z,29.38
2023-08-12T09:24:05.879Z,29.66
2023-08-12T09:26:33.821Z,30.13
2023-08-12T09:29:01.729Z,30.48
2023-08-12T09:31:30.986Z,30.49
2023-08-12T09:34:06.124Z,30.59
2023-08-12T09:36:34.401Z,30.30
2023-08-12T09:39:07.177Z,30.48
2023-08-12T09:41:36.809Z,30.53
2023-08-12T09:44:05.466Z,30.17
2023-08-12T09:46:36.492Z,29.71
2023-08-12T09:49:05.705Z,29.84
2023-08-12T09:51:38.079Z,29.67
2023-08-12T09:54:06.053Z,29.33
2023-08-12T09:56:37.720Z,28.90
2023-08-12T09:59:08.754Z,28.77
2023-08-12T10:01:38.313Z,29.10
2023-08-12T10:04:11.533Z,29.59
2023-08-12T10:06:39.380Z,29.92
2023-08-12T10:09:09.632Z,30.19
2023-08-12T10:11:38.709Z,30.50
2023-08-12T10:14:06.818Z,30.19
2023-08-12T10:16:34.753Z,30.04
2023-08-12T10:19:03.656Z,30.06
2023-08-12T10:21:31.611Z,30.60
2023-08-12T10:24:00.292Z,31.21
2023-08-12T10:26:28.645Z,31.45
2023-08-12T10:28:57.457Z,31.12
2023-08-12T10:31:27.519Z,30.98
2023-08-12T10:33:56.081Z,30.88
2023-08-12T10:36:24.269Z,30.88
2023-08-12T10:38:52.401Z,31.22
2023-08-12T10:41:22.305Z,31.72
2023-08-12T10:43:57.345Z,31.97
2023-08-12T10:46:25.697Z,32.09
2023-08-12T10:48:57.692Z,32.15
2023-08-12T10:52:01.131Z,32.07
2023-08-12T10:54:32.237Z,31.65
2023-08-12T10:57:03.839Z,31.23
2023-08-12T10:59:47.243Z,30.95
2023-08-12T11:02:33.884Z,30.94
2023-08-12T11:05:01.784Z,30.81
2023-08-12T11:07:35.248Z,30.87
2023-08-12T11:10:23.752Z,31.09
2023-08-12T11:12:58.094Z,31.35
2023-08-12T11:15:40.663Z,31.32
2023-08-12T11:18:09.403Z,31.63
2023-08-12T11:20:38.542Z,31.91
2023-08-12T11:23:06.918Z,32.03
2023-08-12T11:25:35.917Z,31.90
2023-08-12T11:28:05.463Z,31.95
2023-08-12T11:30:33.810Z,32.17
2023-08-12T11:33:03.080Z,32.50
2023-08-12T11:35:31.381Z,32.49
2023-08-12T11:37:59.961Z,32.28
2023-08-12T11:40:29.081Z,31.98
2023-08-12T11:42:57.322Z,31.34
2023-08-12T11:45:26.643Z,31.24
2023-08-12T11:47:55.602Z,31.50
2023-08-12T11:50:25.652Z,31.56
2023-08-12T11:52:54.838Z,31.74
2023-08-12T11:55:23.349Z,31.93
2023-08-12T11:57:51.810Z,32.06
2023-08-12T12:00:20.521Z,32.23
2023-08-12T12:02:54.589Z,32.18
2023-08-12T12:05:25.040Z,31.75
2023-08-12T12:07:54.305Z,31.53
2023-08-12T12:10:23.191Z,31.72
2023-08-12T12:12:51.387Z,31.94
2023-08-12T12:15:19.247Z,32.21
2023-08-12T12:17:48.663Z,32.34
2023-08-12T12:20:16.830Z,32.27
2023-08-12T12:22:45.201Z,32.21
2023-08-12T12:25:14.005Z,32.06
2023-08-12T12:27:43.393Z,31.96
2023-08-12T12:30:12.308Z,32.00
2023-08-12T12:32:41.461Z,31.81
2023-08-12T12:35:09.704Z,31.63
2023-08-12T12:37:37.810Z,31.54
2023-08-12T12:40:06.719Z,31.46
2023-08-12T12:42:34.740Z,31.44
2023-08-12T12:45:02.970Z,31.35
2023-08-12T12:47:31.652Z,30.97
2023-08-12T12:49:59.555Z,30.85
2023-08-12T12:52:27.267Z,30.60
2023-08-12T12:54:55.378Z,30.31
2023-08-12T12:57:23.198Z,30.23
2023-08-12T12:59:51.484Z,30.26
2023-08-12T13:02:19.691Z,30.41
2023-08-12T13:04:47.819Z,30.56
2023-08-12T13:07:16.376Z,30.52
2023-08-12T13:09:44.171Z,30.34
2023-08-12T13:12:12.484Z,30.34
2023-08-12T13:14:40.626Z,30.40
2023-08-12T13:17:09.104Z,30.49
2023-08-12T13:19:37.376Z,30.62
2023-08-12T13:22:05.856Z,30.66
2023-08-12T13:24:34.248Z,30.67
2023-08-12T13:27:03.130Z,30.62
2023-08-12T13:29:33.197Z,30.60
2023-08-12T13:32:02.326Z,30.50
2023-08-12T13:34:30.415Z,30.34
2023-08-12T13:36:58.369Z,30.25
2023-08-12T13:39:26.589Z,30.31
2023-08-12T13:41:56.249Z,30.26
2023-08-12T13:44:24.133Z,30.18
2023-08-12T13:46:52.098Z,30.15
2023-08-12T13:49:20.259Z,30.11
2023-08-12T13:51:48.253Z,30.01
2023-08-12T13:54:16.235Z,29.87
2023-08-12T13:56:44.579Z,29.78
2023-08-12T13:59:12.430Z,29.56
2023-08-12T14:01:42.247Z,29.40
2023-08-12T14:04:12.072Z,29.40
2023-08-12T14:06:41.984Z,29.40
2023-08-12T14:09:09.904Z,29.14
2023-08-12T14:11:38.325Z,28.65
2023-08-12T14:14:06.612Z,28.38
2023-08-12T14:16:35.102Z,28.47
2023-08-12T14:19:03.872Z,28.67
2023-08-12T14:21:32.413Z,28.82
2023-08-12T14:24:00.365Z,28.88
2023-08-12T14:26:28.175Z,28.82
2023-08-12T14:28:56.357Z,28.81
2023-08-12T14:31:24.419Z,28.85
2023-08-12T14:33:52.912Z,28.86
2023-08-12T14:36:20.782Z,28.85
2023-08-12T14:38:48.760Z,28.80
2023-08-12T14:41:16.923Z,28.73
2023-08-12T14:43:45.092Z,28.70
2023-08-12T14:46:13.962Z,28.64
2023-08-12T14:48:42.110Z,28.54
2023-08-12T14:51:10.268Z,28.47
2023-08-12T14:53:38.406Z,28.43
2023-08-12T14:56:06.651Z,28.41
2023-08-12T14:58:34.628Z,28.37
2023-08-12T15:01:04.358Z,28.30
2023-08-12T15:03:32.608Z,28.23
2023-08-12T15:06:04.999Z,28.19
2023-08-12T15:08:33.885Z,28.14
2023-08-12T15:11:02.001Z,28.08
2023-08-12T15:13:30.171Z,28.03
2023-08-12T15:15:58.146Z,27.96
2023-08-12T15:18:26.263Z,27.87
2023-08-12T15:20:54.233Z,27.80
2023-08-12T15:23:22.307Z,27.74
2023-08-12T15:25:50.486Z,27.74
2023-08-12T15:28:18.351Z,27.68
2023-08-12T15:30:49.060Z,27.56
2023-08-12T15:33:18.032Z,27.49
2023-08-12T15:35:46.058Z,27.51
2023-08-12T15:38:13.967Z,27.51
2023-08-12T15:40:42.194Z,27.44
2023-08-12T15:43:10.355Z,27.43
2023-08-12T15:45:43.064Z,27.35
2023-08-12T15:48:11.008Z,27.19
2023-08-12T15:50:40.459Z,27.08
2023-08-12T15:53:10.247Z,27.00
2023-08-12T15:55:38.121Z,26.89
2023-08-12T15:58:06.157Z,26.77
2023-08-12T16:00:34.624Z,26.72
2023-08-12T16:03:02.949Z,26.69
2023-08-12T16:05:31.085Z,26.58
2023-08-12T16:07:59.657Z,26.44
2023-08-12T16:10:27.739Z,26.34
2023-08-12T16:12:56.017Z,26.24
2023-08-12T16:15:23.998Z,26.18
2023-08-12T16:17:51.903Z,26.16
2023-08-12T16:20:20.443Z,26.11
2023-08-12T16:22:48.500Z,26.02
2023-08-12T16:25:16.792Z,25.98
2023-08-12T16:27:44.939Z,25.96
2023-08-12T16:30:13.543Z,25.95
2023-08-12T16:32:41.665Z,25.92
2023-08-12T16:35:09.600Z,25.86
2023-08-12T16:37:37.553Z,25.75
2023-08-12T16:40:05.934Z,25.64
2023-08-12T16:42:33.780Z,25.57
2023-08-12T16:45:01.873Z,25.47
2023-08-12T16:47:32.398Z,25.36
2023-08-12T16:50:00.720Z,25.26
2023-08-12T16:52:28.903Z,25.11
2023-08-12T16:54:57.235Z,24.95
2023-08-12T16:57:26.011Z,24.90
2023-08-12T16:59:54.361Z,24.89
2023-08-12T17:02:22.746Z,24.88
2023-08-12T17:04:50.817Z,24.85
2023-08-12T17:07:18.896Z,24.80
2023-08-12T17:09:47.763Z,24.69
2023-08-12T17:12:16.528Z,24.51
2023-08-12T17:14:44.843Z,24.33
2023-08-12T17:17:12.811Z,24.16
2023-08-12T17:19:40.984Z,24.00
2023-08-12T17:22:09.067Z,23.86
2023-08-12T17:24:37.023Z,23.73
2023-08-12T17:27:04.844Z,23.57
2023-08-12T17:29:33.054Z,23.39
2023-08-12T17:32:01.032Z,23.24
2023-08-12T17:34:28.988Z,23.10
2023-08-12T17:36:57.067Z,22.88
2023-08-12T17:39:25.132Z,22.53
2023-08-12T17:41:53.429Z,22.15
2023-08-12T17:44:21.482Z,21.78
2023-08-12T17:46:49.601Z,21.46
2023-08-12T17:49:17.795Z,21.23
2023-08-12T17:51:45.805Z,21.06
2023-08-12T17:54:15.232Z,20.93
2023-08-12T17:56:43.268Z,20.78
2023-08-12T17:59:11.235Z,20.62
2023-08-12T18:01:39.407Z,20.42
2023-08-12T18:04:07.267Z,20.24
2023-08-12T18:06:35.268Z,20.07
2023-08-12T18:09:07.340Z,19.90
2023-08-12T18:11:36.977Z,19.74
2023-08-12T18:14:05.196Z,19.53
2023-08-12T18:16:34.638Z,19.40
2023-08-12T18:19:03.074Z,19.30
2023-08-12T18:21:30.876Z,19.16
2023-08-12T18:23:58.809Z,19.03
2023-08-12T18:26:26.924Z,18.93
2023-08-12T18:28:54.710Z,18.80
2023-08-12T18:31:22.710Z,18.67
2023-08-12T18:33:50.787Z,18.60
2023-08-12T18:36:18.955Z,18.53
2023-08-12T18:38:47.233Z,18.49
2023-08-12T18:41:15.126Z,18.43
2023-08-12T18:43:43.069Z,18.39
2023-08-12T18:46:11.044Z,18.33
2023-08-12T18:48:39.553Z,18.30
2023-08-12T18:51:07.993Z,18.25
2023-08-12T18:53:36.359Z,18.20
2023-08-12T18:56:04.363Z,18.15
2023-08-12T18:58:32.753Z,18.11
2023-08-12T19:01:00.841Z,18.05
2023-08-12T19:03:29.511Z,18.01
2023-08-12T19:06:01.647Z,18.01
2023-08-12T19:08:29.929Z,18.02
2023-08-12T19:10:58.797Z,18.00
2023-08-12T19:13:26.815Z,17.95
2023-08-12T19:15:55.935Z,17.94
2023-08-12T19:18:24.651Z,17.95
2023-08-12T19:20:52.461Z,17.94
2023-08-12T19:23:20.894Z,17.91
2023-08-12T19:25:48.661Z,17.88
2023-08-12T19:28:16.744Z,17.86
2023-08-12T19:30:48.536Z,17.84
2023-08-12T19:33:17.178Z,17.80
2023-08-12T19:35:45.463Z,17.76
2023-08-12T19:38:15.993Z,17.74
2023-08-12T19:40:44.263Z,17.74
2023-08-12T19:43:12.121Z,17.69
2023-08-12T19:45:40.190Z,17.59
2023-08-12T19:48:08.248Z,17.50
2023-08-12T19:50:37.692Z,17.42
2023-08-12T19:53:06.131Z,17.32
2023-08-12T19:55:34.020Z,17.22
2023-08-12T19:58:02.690Z,17.14
2023-08-12T20:00:30.965Z,17.05
2023-08-12T20:02:58.981Z,16.99
2023-08-12T20:05:29.612Z,16.94
2023-08-12T20:07:57.524Z,16.87
2023-08-12T20:10:26.741Z,16.79
2023-08-12T20:12:54.828Z,16.71
2023-08-12T20:15:23.095Z,16.65
2023-08-12T20:17:51.288Z,16.62
2023-08-12T20:20:19.657Z,16.58
2023-08-12T20:23:03.470Z,16.52
2023-08-12T20:25:35.094Z,16.44
2023-08-12T20:28:03.703Z,16.33
2023-08-12T20:30:35.782Z,16.26
2023-08-12T20:33:04.702Z,16.21
2023-08-12T20:35:33.167Z,16.18
2023-08-12T20:38:02.031Z,16.13
2023-08-12T20:40:30.326Z,16.06
2023-08-12T20:42:59.121Z,15.99
2023-08-12T20:45:27.373Z,15.93
2023-08-12T20:47:55.253Z,15.86
2023-08-12T20:50:23.295Z,15.81
2023-08-12T20:52:51.272Z,15.76
2023-08-12T20:55:19.475Z,15.70
2023-08-12T20:57:49.450Z,15.62
2023-08-12T21:00:17.631Z,15.54
2023-08-12T21:02:47.500Z,15.48
2023-08-12T21:05:16.597Z,15.40
2023-08-12T21:07:44.796Z,15.23
2023-08-12T21:10:13.493Z,15.02
2023-08-12T21:12:41.811Z,14.89
2023-08-12T21:15:09.924Z,14.78
2023-08-12T21:17:38.048Z,14.73
2023-08-12T21:20:06.365Z,14.69
2023-08-12T21:22:34.486Z,14.67
2023-08-12T21:25:02.305Z,14.68
2023-08-12T21:27:30.053Z,14.73
2023-08-12T21:29:58.287Z,14.78
2023-08-12T21:32:26.496Z,14.78
2023-08-12T21:34:54.513Z,14.75
2023-08-12T21:37:22.326Z,14.78
2023-08-12T21:39:50.353Z,14.81
2023-08-12T21:42:18.308Z,14.76
2023-08-12T21:44:46.156Z,14.69
2023-08-12T21:47:14.448Z,14.61
2023-08-12T21:49:42.371Z,14.55
2023-08-12T21:52:10.182Z,14.50
2023-08-12T21:54:38.255Z,14.49
2023-08-12T21:57:06.326Z,14.46
2023-08-12T21:59:34.710Z,14.42
2023-08-12T22:02:05.661Z,14.40
2023-08-12T22:04:33.717Z,14.38
2023-08-12T22:07:01.793Z,14.37
2023-08-12T22:09:30.304Z,14.38
2023-08-12T22:11:59.202Z,14.39
2023-08-12T22:14:27.141Z,14.43
2023-08-12T22:16:55.193Z,14.46
2023-08-12T22:19:24.388Z,14.36
2023-08-12T22:21:55.666Z,14.25
2023-08-12T22:24:26.496Z,14.19
2023-08-12T22:26:54.654Z,14.17
2023-08-12T22:29:22.816Z,14.11
2023-08-12T22:31:50.824Z,14.02
2023-08-12T22:34:19.460Z,13.94
2023-08-12T22:36:47.671Z,13.87
2023-08-12T22:39:15.568Z,13.75
2023-08-12T22:41:43.472Z,13.69
2023-08-12T22:44:11.650Z,13.65
2023-08-12T22:46:39.632Z,13.64
2023-08-12T22:49:07.890Z,13.64
2023-08-12T22:51:37.193Z,13.63
2023-08-12T22:54:05.841Z,13.62
2023-08-12T22:56:34.566Z,13.59
2023-08-12T22:59:02.759Z,13.55
2023-08-12T23:01:30.831Z,13.51
2023-08-12T23:03:58.664Z,13.48
2023-08-12T23:06:26.752Z,13.45
2023-08-12T23:08:54.706Z,13.44
2023-08-12T23:11:22.674Z,13.40
2023-08-12T23:13:50.661Z,13.35
2023-08-12T23:16:18.653Z,13.27
2023-08-12T23:18:46.784Z,13.16
2023-08-12T23:21:14.784Z,13.11
2023-08-12T23:23:42.825Z,13.08
2023-08-12T23:26:10.710Z,13.04
2023-08-12T23:28:40.731Z,12.98
2023-08-12T23:31:11.405Z,12.95
2023-08-12T23:33:39.341Z,12.89
2023-08-12T23:36:07.197Z,12.86
2023-08-12T23:38:35.347Z,12.84
2023-08-12T23:41:03.479Z,12.83
2023-08-12T23:43:31.309Z,12.87
2023-08-12T23:46:01.316Z,12.92
2023-08-12T23:48:29.305Z,12.98
2023-08-12T23:50:57.551Z,12.98
2023-08-12T23:53:25.524Z,12.92
2023-08-12T23:55:53.680Z,12.78
2023-08-12T23:58:21.969Z,12.72
